sensor_id;sensor_type;location;lat;lon;timestamp;pressure;altitude;pressure_sealevel;temperature;humidity
14273;BME280;7220;49.450;11.052;2023-12-20T00:02:32;98092.19;;;6.34;100.00
14273;BME280;7220;49.450;11.052;2023-12-20T00:06:33;98093.84;;;6.36;100.00
14273;BME280;7220;49.450;11.052;2023-12-20T00:10:33;98087.81;;;6.32;100.00
14273;BME280;7220;49.450;11.052;2023-12-20T00:14:33;98102.81;;;6.32;100.00
14273;BME280;7220;49.450;11.052;2023-12-20T00:18:34;98093.75;;;6.39;100.00
14273;BME280;7220;49.450;11.052;2023-12-20T00:22:34;98093.00;;;6.36;100.00
14273;BME280;7220;49.450;11.052;2023-12-20T00:26:34;98078.81;;;6.38;100.00
14273;BME280;7220;49.450;11.052;2023-12-20T00:30:35;98072.84;;;6.33;100.00
14273;BME280;7220;49.450;11.052;2023-12-20T00:34:36;98065.56;;;6.40;100.00
14273;BME280;7220;49.450;11.052;2023-12-20T00:38:36;98056.81;;;6.38;100.00
14273;BME280;7220;49.450;11.052;2023-12-20T00:42:37;98048.91;;;6.38;100.00
14273;BME280;7220;49.450;11.052;2023-12-20T00:46:37;98046.69;;;6.27;100.00
14273;BME280;7220;49.450;11.052;2023-12-20T00:50:37;98040.31;;;6.32;100.00
14273;BME280;7220;49.450;11.052;2023-12-20T00:54:38;98042.22;;;6.29;100.00
14273;BME280;7220;49.450;11.052;2023-12-20T00:58:38;98046.59;;;6.30;100.00
14273;BME280;7220;49.450;11.052;2023-12-20T01:02:39;98048.47;;;6.26;100.00
14273;BME280;7220;49.450;11.052;2023-12-20T01:06:39;98043.28;;;6.25;100.00
14273;BME280;7220;49.450;11.052;2023-12-20T01:10:39;98051.22;;;6.23;100.00
14273;BME280;7220;49.450;11.052;2023-12-20T01:14:40;98031.72;;;6.27;100.00
14273;BME280;7220;49.450;11.052;2023-12-20T01:18:40;98047.56;;;6.27;100.00
14273;BME280;7220;49.450;11.052;2023-12-20T01:22:41;98033.66;;;6.22;100.00
14273;BME280;7220;49.450;11.052;2023-12-20T01:26:43;98036.28;;;6.24;100.00
14273;BME280;7220;49.450;11.052;2023-12-20T01:30:43;98024.00;;;6.23;100.00
14273;BME280;7220;49.450;11.052;2023-12-20T01:34:44;98004.72;;;6.21;100.00
14273;BME280;7220;49.450;11.052;2023-12-20T01:38:44;98017.84;;;6.22;100.00
14273;BME280;7220;49.450;11.052;2023-12-20T01:42:44;98011.59;;;6.25;100.00
14273;BME280;7220;49.450;11.052;2023-12-20T01:46:45;98013.28;;;6.26;100.00
14273;BME280;7220;49.450;11.052;2023-12-20T01:50:46;98006.72;;;6.14;100.00
14273;BME280;7220;49.450;11.052;2023-12-20T01:54:47;98023.28;;;6.18;100.00
14273;BME280;7220;49.450;11.052;2023-12-20T01:58:48;98024.03;;;6.21;100.00
14273;BME280;7220;49.450;11.052;2023-12-20T02:02:50;98020.78;;;6.14;100.00
14273;BME280;7220;49.450;11.052;2023-12-20T02:06:52;98020.03;;;6.11;100.00
14273;BME280;7220;49.450;11.052;2023-12-20T02:10:53;98015.13;;;6.02;100.00
14273;BME280;7220;49.450;11.052;2023-12-20T02:14:54;98016.50;;;5.87;100.00
14273;BME280;7220;49.450;11.052;2023-12-20T02:18:54;98007.75;;;5.86;100.00
14273;BME280;7220;49.450;11.052;2023-12-20T02:22:55;97995.16;;;5.71;100.00
14273;BME280;7220;49.450;11.052;2023-12-20T02:26:55;98000.44;;;5.71;100.00
14273;BME280;7220;49.450;11.052;2023-12-20T02:30:56;98016.66;;;5.60;100.00
14273;BME280;7220;49.450;11.052;2023-12-20T02:34:56;98005.63;;;5.48;100.00
14273;BME280;7220;49.450;11.052;2023-12-20T02:38:56;98012.94;;;5.40;100.00
14273;BME280;7220;49.450;11.052;2023-12-20T02:42:57;98000.09;;;5.31;100.00
14273;BME280;7220;49.450;11.052;2023-12-20T02:46:57;98009.84;;;5.29;100.00
14273;BME280;7220;49.450;11.052;2023-12-20T02:50:57;98012.50;;;5.27;100.00
14273;BME280;7220;49.450;11.052;2023-12-20T02:54:58;98012.63;;;5.24;100.00
14273;BME280;7220;49.450;11.052;2023-12-20T02:58:58;98013.56;;;5.21;100.00
14273;BME280;7220;49.450;11.052;2023-12-20T03:02:58;98017.47;;;5.11;100.00
14273;BME280;7220;49.450;11.052;2023-12-20T03:06:59;98012.28;;;5.08;100.00
14273;BME280;7220;49.450;11.052;2023-12-20T03:11:00;98010.88;;;4.98;100.00
14273;BME280;7220;49.450;11.052;2023-12-20T03:15:00;98003.13;;;4.93;100.00
14273;BME280;7220;49.450;11.052;2023-12-20T03:19:00;97998.81;;;4.92;100.00
14273;BME280;7220;49.450;11.052;2023-12-20T03:23:01;98001.47;;;4.90;100.00
14273;BME280;7220;49.450;11.052;2023-12-20T03:27:01;98015.59;;;4.88;100.00
14273;BME280;7220;49.450;11.052;2023-12-20T03:31:02;98008.63;;;4.87;100.00
14273;BME280;7220;49.450;11.052;2023-12-20T03:35:02;98013.94;;;4.85;100.00
14273;BME280;7220;49.450;11.052;2023-12-20T03:39:03;98009.78;;;4.78;100.00
14273;BME280;7220;49.450;11.052;2023-12-20T03:43:03;98003.56;;;4.81;100.00
14273;BME280;7220;49.450;11.052;2023-12-20T03:47:04;98011.31;;;4.85;100.00
14273;BME280;7220;49.450;11.052;2023-12-20T03:51:04;98012.22;;;4.84;100.00
14273;BME280;7220;49.450;11.052;2023-12-20T03:55:05;98015.06;;;4.78;100.00
14273;BME280;7220;49.450;11.052;2023-12-20T03:59:05;98015.06;;;4.78;100.00
14273;BME280;7220;49.450;11.052;2023-12-20T04:03:07;98019.56;;;4.74;100.00
14273;BME280;7220;49.450;11.052;2023-12-20T04:07:07;98023.88;;;4.77;100.00
14273;BME280;7220;49.450;11.052;2023-12-20T04:11:07;98017.78;;;4.75;100.00
14273;BME280;7220;49.450;11.052;2023-12-20T04:15:08;98013.44;;;4.74;100.00
14273;BME280;7220;49.450;11.052;2023-12-20T04:19:10;98018.59;;;4.77;100.00
14273;BME280;7220;49.450;11.052;2023-12-20T04:23:10;98018.59;;;4.77;100.00
14273;BME280;7220;49.450;11.052;2023-12-20T04:27:11;98030.94;;;4.75;100.00
14273;BME280;7220;49.450;11.052;2023-12-20T04:31:11;98022.22;;;4.73;100.00
14273;BME280;7220;49.450;11.052;2023-12-20T04:35:12;98011.88;;;4.68;100.00
14273;BME280;7220;49.450;11.052;2023-12-20T04:39:13;98029.34;;;4.71;100.00
14273;BME280;7220;49.450;11.052;2023-12-20T04:43:13;98021.53;;;4.68;100.00
14273;BME280;7220;49.450;11.052;2023-12-20T04:47:13;98018.06;;;4.67;100.00
14273;BME280;7220;49.450;11.052;2023-12-20T04:51:14;98018.13;;;4.64;100.00
14273;BME280;7220;49.450;11.052;2023-12-20T04:55:14;98023.31;;;4.67;100.00
14273;BME280;7220;49.450;11.052;2023-12-20T04:59:14;98026.66;;;4.72;100.00
14273;BME280;7220;49.450;11.052;2023-12-20T05:03:15;98036.41;;;4.69;100.00
14273;BME280;7220;49.450;11.052;2023-12-20T05:07:15;98023.34;;;4.66;100.00
14273;BME280;7220;49.450;11.052;2023-12-20T05:11:15;98042.53;;;4.69;100.00
14273;BME280;7220;49.450;11.052;2023-12-20T05:15:17;98058.38;;;4.68;100.00
14273;BME280;7220;49.450;11.052;2023-12-20T05:19:17;98061.00;;;4.68;100.00
14273;BME280;7220;49.450;11.052;2023-12-20T05:23:17;98063.66;;;4.68;100.00
14273;BME280;7220;49.450;11.052;2023-12-20T05:27:18;98060.41;;;4.60;100.00
14273;BME280;7220;49.450;11.052;2023-12-20T05:31:18;98059.44;;;4.62;100.00
14273;BME280;7220;49.450;11.052;2023-12-20T05:35:18;98064.69;;;4.64;100.00
14273;BME280;7220;49.450;11.052;2023-12-20T05:39:19;98068.28;;;4.60;100.00
14273;BME280;7220;49.450;11.052;2023-12-20T05:43:19;98069.13;;;4.62;100.00
14273;BME280;7220;49.450;11.052;2023-12-20T05:47:20;98070.22;;;4.54;100.00
14273;BME280;7220;49.450;11.052;2023-12-20T05:51:20;98077.97;;;4.59;100.00
14273;BME280;7220;49.450;11.052;2023-12-20T05:55:20;98075.28;;;4.61;100.00
14273;BME280;7220;49.450;11.052;2023-12-20T05:59:21;98086.53;;;4.66;100.00
14273;BME280;7220;49.450;11.052;2023-12-20T06:03:21;98090.38;;;4.55;100.00
14273;BME280;7220;49.450;11.052;2023-12-20T06:07:21;98105.41;;;4.50;100.00
14273;BME280;7220;49.450;11.052;2023-12-20T06:11:22;98099.06;;;4.57;100.00
14273;BME280;7220;49.450;11.052;2023-12-20T06:15:22;98100.56;;;4.66;100.00
14273;BME280;7220;49.450;11.052;2023-12-20T06:19:23;98109.50;;;4.61;100.00
14273;BME280;7220;49.450;11.052;2023-12-20T06:23:23;98113.88;;;4.62;100.00
14273;BME280;7220;49.450;11.052;2023-12-20T06:27:24;98130.75;;;4.54;100.00
14273;BME280;7220;49.450;11.052;2023-12-20T06:31:24;98127.97;;;4.59;100.00
14273;BME280;7220;49.450;11.052;2023-12-20T06:35:24;98123.69;;;4.56;100.00
14273;BME280;7220;49.450;11.052;2023-12-20T06:39:25;98134.09;;;4.60;100.00
14273;BME280;7220;49.450;11.052;2023-12-20T06:43:25;98139.13;;;4.67;100.00
14273;BME280;7220;49.450;11.052;2023-12-20T06:47:26;98131.19;;;4.69;100.00
14273;BME280;7220;49.450;11.052;2023-12-20T06:51:26;98140.88;;;4.68;100.00
14273;BME280;7220;49.450;11.052;2023-12-20T06:55:27;98143.31;;;4.73;100.00
14273;BME280;7220;49.450;11.052;2023-12-20T06:59:27;98144.16;;;4.75;100.00
14273;BME280;7220;49.450;11.052;2023-12-20T07:03:27;98152.81;;;4.79;100.00
14273;BME280;7220;49.450;11.052;2023-12-20T07:07:28;98169.38;;;4.82;100.00
14273;BME280;7220;49.450;11.052;2023-12-20T07:11:28;98186.91;;;4.83;100.00
14273;BME280;7220;49.450;11.052;2023-12-20T07:15:28;98181.56;;;4.86;100.00
14273;BME280;7220;49.450;11.052;2023-12-20T07:19:30;98195.69;;;4.84;100.00
14273;BME280;7220;49.450;11.052;2023-12-20T07:23:30;98197.63;;;4.77;100.00
14273;BME280;7220;49.450;11.052;2023-12-20T07:27:30;98195.81;;;4.79;100.00
14273;BME280;7220;49.450;11.052;2023-12-20T07:31:31;98195.63;;;4.85;100.00
14273;BME280;7220;49.450;11.052;2023-12-20T07:35:31;98193.75;;;4.89;100.00
14273;BME280;7220;49.450;11.052;2023-12-20T07:39:31;98206.06;;;4.88;100.00
14273;BME280;7220;49.450;11.052;2023-12-20T07:43:32;98192.75;;;4.93;100.00
14273;BME280;7220;49.450;11.052;2023-12-20T07:47:32;98197.03;;;4.97;100.00
14273;BME280;7220;49.450;11.052;2023-12-20T07:51:32;98209.31;;;4.97;100.00
14273;BME280;7220;49.450;11.052;2023-12-20T07:55:33;98205.47;;;5.07;100.00
14273;BME280;7220;49.450;11.052;2023-12-20T07:59:34;98217.84;;;5.05;100.00
14273;BME280;7220;49.450;11.052;2023-12-20T08:03:34;98218.47;;;5.13;100.00
14273;BME280;7220;49.450;11.052;2023-12-20T08:07:35;98217.66;;;5.11;100.00
14273;BME280;7220;49.450;11.052;2023-12-20T08:11:35;98223.69;;;5.15;100.00
14273;BME280;7220;49.450;11.052;2023-12-20T08:15:36;98219.81;;;5.27;100.00
14273;BME280;7220;49.450;11.052;2023-12-20T08:19:37;98221.63;;;5.25;100.00
14273;BME280;7220;49.450;11.052;2023-12-20T08:23:38;98214.50;;;5.28;100.00
14273;BME280;7220;49.450;11.052;2023-12-20T08:27:40;98215.03;;;5.38;100.00
14273;BME280;7220;49.450;11.052;2023-12-20T08:31:41;98223.06;;;5.35;100.00
14273;BME280;7220;49.450;11.052;2023-12-20T08:35:41;98242.13;;;5.43;100.00
14273;BME280;7220;49.450;11.052;2023-12-20T08:39:42;98221.22;;;5.37;100.00
14273;BME280;7220;49.450;11.052;2023-12-20T08:43:44;98228.84;;;5.46;100.00
14273;BME280;7220;49.450;11.052;2023-12-20T08:47:44;98216.38;;;5.51;100.00
14273;BME280;7220;49.450;11.052;2023-12-20T08:51:45;98235.47;;;5.58;100.00
14273;BME280;7220;49.450;11.052;2023-12-20T08:55:45;98234.03;;;5.49;100.00
14273;BME280;7220;49.450;11.052;2023-12-20T08:59:49;98222.44;;;5.53;100.00
14273;BME280;7220;49.450;11.052;2023-12-20T09:03:50;98213.47;;;5.59;100.00
14273;BME280;7220;49.450;11.052;2023-12-20T09:07:50;98216.19;;;5.58;100.00
14273;BME280;7220;49.450;11.052;2023-12-20T09:11:50;98212.66;;;5.57;100.00
14273;BME280;7220;49.450;11.052;2023-12-20T09:15:51;98222.06;;;5.66;100.00
14273;BME280;7220;49.450;11.052;2023-12-20T09:19:51;98234.88;;;5.50;100.00
14273;BME280;7220;49.450;11.052;2023-12-20T09:23:54;98233.75;;;5.57;100.00
14273;BME280;7220;49.450;11.052;2023-12-20T09:27:54;98224.78;;;5.63;100.00
14273;BME280;7220;49.450;11.052;2023-12-20T09:31:54;98236.31;;;5.60;100.00
14273;BME280;7220;49.450;11.052;2023-12-20T09:35:55;98231.78;;;5.64;100.00
14273;BME280;7220;49.450;11.052;2023-12-20T09:39:55;98244.06;;;5.65;100.00
14273;BME280;7220;49.450;11.052;2023-12-20T09:43:58;98248.47;;;5.64;100.00
14273;BME280;7220;49.450;11.052;2023-12-20T09:48:01;98249.03;;;5.74;100.00
14273;BME280;7220;49.450;11.052;2023-12-20T09:52:04;98233.84;;;5.81;100.00
14273;BME280;7220;49.450;11.052;2023-12-20T09:56:05;98244.97;;;5.91;100.00
14273;BME280;7220;49.450;11.052;2023-12-20T10:00:06;98237.97;;;5.90;100.00
14273;BME280;7220;49.450;11.052;2023-12-20T10:04:09;98241.28;;;5.95;100.00
14273;BME280;7220;49.450;11.052;2023-12-20T10:08:11;98246.38;;;6.01;100.00
14273;BME280;7220;49.450;11.052;2023-12-20T10:12:11;98228.66;;;6.06;100.00
14273;BME280;7220;49.450;11.052;2023-12-20T10:16:11;98233.97;;;6.30;99.52
14273;BME280;7220;49.450;11.052;2023-12-20T10:20:12;98224.00;;;6.38;99.00
14273;BME280;7220;49.450;11.052;2023-12-20T10:24:17;98222.84;;;6.45;98.10
14273;BME280;7220;49.450;11.052;2023-12-20T10:28:17;98209.66;;;6.45;97.15
14273;BME280;7220;49.450;11.052;2023-12-20T10:32:24;98213.78;;;6.53;96.38
14273;BME280;7220;49.450;11.052;2023-12-20T10:36:29;98219.16;;;6.50;95.63
14273;BME280;7220;49.450;11.052;2023-12-20T10:40:29;98207.59;;;6.54;94.97
14273;BME280;7220;49.450;11.052;2023-12-20T10:44:30;98218.66;;;6.63;93.97
14273;BME280;7220;49.450;11.052;2023-12-20T10:48:31;98221.72;;;6.53;93.01
14273;BME280;7220;49.450;11.052;2023-12-20T10:52:34;98202.72;;;6.67;92.89
14273;BME280;7220;49.450;11.052;2023-12-20T10:56:36;98204.88;;;6.55;92.99
14273;BME280;7220;49.450;11.052;2023-12-20T11:00:40;98202.88;;;6.62;93.35
14273;BME280;7220;49.450;11.052;2023-12-20T11:08:52;98194.31;;;6.55;92.69
14273;BME280;7220;49.450;11.052;2023-12-20T11:13:12;98185.06;;;6.67;92.93
14273;BME280;7220;49.450;11.052;2023-12-20T11:17:17;98174.69;;;6.62;93.55
14273;BME280;7220;49.450;11.052;2023-12-20T11:21:19;98189.78;;;6.59;93.70
14273;BME280;7220;49.450;11.052;2023-12-20T11:25:20;98202.41;;;6.51;94.00
14273;BME280;7220;49.450;11.052;2023-12-20T11:29:34;98185.66;;;6.52;96.40
14273;BME280;7220;49.450;11.052;2023-12-20T11:33:38;98183.69;;;6.33;96.85
14273;BME280;7220;49.450;11.052;2023-12-20T11:37:40;98174.53;;;6.43;96.68
14273;BME280;7220;49.450;11.052;2023-12-20T11:41:44;98175.59;;;6.38;97.79
14273;BME280;7220;49.450;11.052;2023-12-20T11:45:49;98171.94;;;6.42;96.58
14273;BME280;7220;49.450;11.052;2023-12-20T11:49:51;98168.78;;;6.56;95.84
14273;BME280;7220;49.450;11.052;2023-12-20T11:53:52;98159.00;;;6.58;96.29
14273;BME280;7220;49.450;11.052;2023-12-20T11:57:53;98172.22;;;6.58;98.08
14273;BME280;7220;49.450;11.052;2023-12-20T12:01:54;98169.00;;;6.50;99.42
14273;BME280;7220;49.450;11.052;2023-12-20T12:06:00;98172.44;;;6.52;98.39
14273;BME280;7220;49.450;11.052;2023-12-20T12:10:02;98168.97;;;6.51;98.60
14273;BME280;7220;49.450;11.052;2023-12-20T12:14:07;98167.50;;;6.42;99.81
14273;BME280;7220;49.450;11.052;2023-12-20T12:18:07;98158.81;;;6.40;98.83
14273;BME280;7220;49.450;11.052;2023-12-20T12:22:12;98161.19;;;6.70;98.30
14273;BME280;7220;49.450;11.052;2023-12-20T12:26:14;98158.97;;;6.82;96.42
14273;BME280;7220;49.450;11.052;2023-12-20T12:30:16;98149.03;;;6.66;96.87
14273;BME280;7220;49.450;11.052;2023-12-20T12:34:18;98160.97;;;6.76;95.74
14273;BME280;7220;49.450;11.052;2023-12-20T12:38:22;98158.72;;;6.66;95.63
14273;BME280;7220;49.450;11.052;2023-12-20T12:42:24;98160.84;;;6.79;95.33
14273;BME280;7220;49.450;11.052;2023-12-20T12:46:28;98154.16;;;6.93;94.36
14273;BME280;7220;49.450;11.052;2023-12-20T12:50:30;98142.50;;;6.99;93.62
14273;BME280;7220;49.450;11.052;2023-12-20T12:54:31;98147.69;;;7.00;94.21
14273;BME280;7220;49.450;11.052;2023-12-20T12:58:32;98160.97;;;6.99;93.23
14273;BME280;7220;49.450;11.052;2023-12-20T13:02:32;98154.41;;;7.09;91.99
14273;BME280;7220;49.450;11.052;2023-12-20T13:06:32;98137.75;;;6.85;91.65
14273;BME280;7220;49.450;11.052;2023-12-20T13:10:33;98152.06;;;7.01;92.34
14273;BME280;7220;49.450;11.052;2023-12-20T13:14:34;98142.50;;;6.99;90.86
14273;BME280;7220;49.450;11.052;2023-12-20T13:18:34;98143.41;;;6.98;92.09
14273;BME280;7220;49.450;11.052;2023-12-20T13:22:35;98131.38;;;6.90;91.03
14273;BME280;7220;49.450;11.052;2023-12-20T13:26:36;98135.03;;;6.86;90.98
14273;BME280;7220;49.450;11.052;2023-12-20T13:30:36;98135.00;;;6.88;89.91
14273;BME280;7220;49.450;11.052;2023-12-20T13:34:36;98156.16;;;6.86;89.60
14273;BME280;7220;49.450;11.052;2023-12-20T13:38:37;98160.84;;;6.79;89.98
14273;BME280;7220;49.450;11.052;2023-12-20T13:42:38;98165.25;;;6.79;90.42
14273;BME280;7220;49.450;11.052;2023-12-20T13:46:41;98142.25;;;6.59;91.17
14273;BME280;7220;49.450;11.052;2023-12-20T13:50:41;98149.03;;;6.42;92.18
14273;BME280;7220;49.450;11.052;2023-12-20T13:54:42;98149.94;;;6.41;91.63
14273;BME280;7220;49.450;11.052;2023-12-20T13:58:42;98142.75;;;6.46;91.25
14273;BME280;7220;49.450;11.052;2023-12-20T14:02:43;98137.91;;;6.34;91.38
14273;BME280;7220;49.450;11.052;2023-12-20T14:06:43;98146.69;;;6.35;90.56
14273;BME280;7220;49.450;11.052;2023-12-20T14:10:43;98133.50;;;6.35;90.36
14273;BME280;7220;49.450;11.052;2023-12-20T14:14:44;98136.19;;;6.33;90.79
14273;BME280;7220;49.450;11.052;2023-12-20T14:18:45;98136.31;;;6.30;90.26
14273;BME280;7220;49.450;11.052;2023-12-20T14:22:45;98145.88;;;6.09;91.16
14273;BME280;7220;49.450;11.052;2023-12-20T14:26:46;98140.53;;;6.10;91.19
14273;BME280;7220;49.450;11.052;2023-12-20T14:30:46;98132.75;;;6.07;92.27
14273;BME280;7220;49.450;11.052;2023-12-20T14:34:47;98118.81;;;6.04;93.18
14273;BME280;7220;49.450;11.052;2023-12-20T14:38:47;98118.13;;;5.97;94.47
14273;BME280;7220;49.450;11.052;2023-12-20T14:42:49;98107.66;;;5.95;95.21
14273;BME280;7220;49.450;11.052;2023-12-20T14:46:50;98104.56;;;6.08;94.87
14273;BME280;7220;49.450;11.052;2023-12-20T14:50:51;98108.63;;;5.93;96.44
14273;BME280;7220;49.450;11.052;2023-12-20T14:54:52;98109.41;;;5.95;96.54
14273;BME280;7220;49.450;11.052;2023-12-20T14:58:53;98113.19;;;5.88;97.86
14273;BME280;7220;49.450;11.052;2023-12-20T15:02:53;98109.69;;;5.87;96.97
14273;BME280;7220;49.450;11.052;2023-12-20T15:06:56;98119.53;;;5.82;97.75
14273;BME280;7220;49.450;11.052;2023-12-20T15:10:57;98120.50;;;5.79;97.79
14273;BME280;7220;49.450;11.052;2023-12-20T15:14:57;98116.47;;;5.94;97.94
14273;BME280;7220;49.450;11.052;2023-12-20T15:18:58;98112.34;;;5.87;97.42
14273;BME280;7220;49.450;11.052;2023-12-20T15:22:58;98103.88;;;5.77;97.91
14273;BME280;7220;49.450;11.052;2023-12-20T15:27:05;98106.09;;;5.90;97.62
14273;BME280;7220;49.450;11.052;2023-12-20T15:31:06;98092.00;;;5.91;96.95
14273;BME280;7220;49.450;11.052;2023-12-20T15:35:07;98091.50;;;5.79;96.99
14273;BME280;7220;49.450;11.052;2023-12-20T15:39:07;98112.06;;;5.69;97.38
14273;BME280;7220;49.450;11.052;2023-12-20T15:43:10;98118.25;;;5.68;97.45
14273;BME280;7220;49.450;11.052;2023-12-20T15:47:10;98118.78;;;5.78;97.18
14273;BME280;7220;49.450;11.052;2023-12-20T15:51:11;98128.97;;;5.64;97.80
14273;BME280;7220;49.450;11.052;2023-12-20T15:55:11;98122.47;;;5.74;97.05
14273;BME280;7220;49.450;11.052;2023-12-20T15:59:12;98120.41;;;5.82;96.63
14273;BME280;7220;49.450;11.052;2023-12-20T16:03:12;98115.31;;;5.78;96.56
14273;BME280;7220;49.450;11.052;2023-12-20T16:07:12;98109.34;;;5.73;96.55
14273;BME280;7220;49.450;11.052;2023-12-20T16:11:13;98109.84;;;5.57;96.94
14273;BME280;7220;49.450;11.052;2023-12-20T16:15:13;98078.94;;;5.62;96.82
14273;BME280;7220;49.450;11.052;2023-12-20T16:19:14;98087.59;;;5.66;97.55
14273;BME280;7220;49.450;11.052;2023-12-20T16:23:14;98068.22;;;5.67;97.27
14273;BME280;7220;49.450;11.052;2023-12-20T16:27:15;98081.41;;;5.67;96.14
14273;BME280;7220;49.450;11.052;2023-12-20T16:31:16;98094.44;;;5.72;96.46
14273;BME280;7220;49.450;11.052;2023-12-20T16:35:17;98080.69;;;5.62;95.83
14273;BME280;7220;49.450;11.052;2023-12-20T16:39:19;98107.88;;;5.64;96.03
14273;BME280;7220;49.450;11.052;2023-12-20T16:43:20;98117.50;;;5.65;95.78
14273;BME280;7220;49.450;11.052;2023-12-20T16:47:22;98130.63;;;5.66;95.78
14273;BME280;7220;49.450;11.052;2023-12-20T16:51:23;98134.59;;;5.78;95.16
14273;BME280;7220;49.450;11.052;2023-12-20T16:55:23;98116.00;;;5.83;95.34
14273;BME280;7220;49.450;11.052;2023-12-20T16:59:23;98133.59;;;5.82;96.03
14273;BME280;7220;49.450;11.052;2023-12-20T17:03:24;98126.25;;;5.65;95.81
14273;BME280;7220;49.450;11.052;2023-12-20T17:07:26;98125.78;;;5.79;95.67
14273;BME280;7220;49.450;11.052;2023-12-20T17:11:27;98108.47;;;5.72;96.67
14273;BME280;7220;49.450;11.052;2023-12-20T17:15:28;98116.16;;;5.78;96.57
14273;BME280;7220;49.450;11.052;2023-12-20T17:19:28;98098.81;;;5.71;96.47
14273;BME280;7220;49.450;11.052;2023-12-20T17:23:30;98102.13;;;5.78;97.10
14273;BME280;7220;49.450;11.052;2023-12-20T17:27:30;98093.53;;;5.73;96.75
14273;BME280;7220;49.450;11.052;2023-12-20T17:31:31;98097.09;;;5.70;96.47
14273;BME280;7220;49.450;11.052;2023-12-20T17:35:31;98082.16;;;5.71;97.00
14273;BME280;7220;49.450;11.052;2023-12-20T17:39:31;98099.97;;;5.64;97.42
14273;BME280;7220;49.450;11.052;2023-12-20T17:43:32;98093.63;;;5.69;97.24
14273;BME280;7220;49.450;11.052;2023-12-20T17:47:32;98102.00;;;5.56;97.59
14273;BME280;7220;49.450;11.052;2023-12-20T17:51:33;98097.38;;;5.62;97.93
14273;BME280;7220;49.450;11.052;2023-12-20T17:55:33;98092.88;;;5.66;96.78
14273;BME280;7220;49.450;11.052;2023-12-20T17:59:34;98085.97;;;5.62;97.23
14273;BME280;7220;49.450;11.052;2023-12-20T18:03:34;98080.81;;;5.59;97.71
14273;BME280;7220;49.450;11.052;2023-12-20T18:07:34;98081.25;;;5.72;98.24
14273;BME280;7220;49.450;11.052;2023-12-20T18:11:35;98080.50;;;5.68;99.02
14273;BME280;7220;49.450;11.052;2023-12-20T18:15:35;98079.91;;;5.60;100.00
14273;BME280;7220;49.450;11.052;2023-12-20T18:19:35;98087.91;;;5.57;100.00
14273;BME280;7220;49.450;11.052;2023-12-20T18:23:36;98095.72;;;5.60;100.00
14273;BME280;7220;49.450;11.052;2023-12-20T18:27:36;98087.69;;;5.63;100.00
14273;BME280;7220;49.450;11.052;2023-12-20T18:31:36;98077.81;;;5.69;100.00
14273;BME280;7220;49.450;11.052;2023-12-20T18:35:37;98085.34;;;5.55;100.00
14273;BME280;7220;49.450;11.052;2023-12-20T18:39:40;98101.09;;;5.57;100.00
14273;BME280;7220;49.450;11.052;2023-12-20T18:43:40;98093.28;;;5.53;100.00
14273;BME280;7220;49.450;11.052;2023-12-20T18:47:41;98087.09;;;5.55;100.00
14273;BME280;7220;49.450;11.052;2023-12-20T18:51:41;98103.81;;;5.53;100.00
14273;BME280;7220;49.450;11.052;2023-12-20T18:55:42;98093.19;;;5.57;100.00
14273;BME280;7220;49.450;11.052;2023-12-20T18:59:42;98085.81;;;5.41;100.00
14273;BME280;7220;49.450;11.052;2023-12-20T19:03:43;98083.84;;;5.48;100.00
14273;BME280;7220;49.450;11.052;2023-12-20T19:07:43;98081.06;;;5.51;100.00
14273;BME280;7220;49.450;11.052;2023-12-20T19:11:43;98070.59;;;5.49;100.00
14273;BME280;7220;49.450;11.052;2023-12-20T19:15:44;98072.63;;;5.41;100.00
14273;BME280;7220;49.450;11.052;2023-12-20T19:19:44;98062.09;;;5.41;100.00
14273;BME280;7220;49.450;11.052;2023-12-20T19:23:44;98061.25;;;5.41;100.00
14273;BME280;7220;49.450;11.052;2023-12-20T19:27:45;98065.56;;;5.43;100.00
14273;BME280;7220;49.450;11.052;2023-12-20T19:31:45;98063.81;;;5.42;100.00
14273;BME280;7220;49.450;11.052;2023-12-20T19:35:47;98068.94;;;5.47;100.00
14273;BME280;7220;49.450;11.052;2023-12-20T19:39:49;98071.88;;;5.37;100.00
14273;BME280;7220;49.450;11.052;2023-12-20T19:43:49;98081.16;;;5.22;100.00
14273;BME280;7220;49.450;11.052;2023-12-20T19:47:50;98065.22;;;5.27;100.00
14273;BME280;7220;49.450;11.052;2023-12-20T19:51:51;98062.56;;;5.27;100.00
14273;BME280;7220;49.450;11.052;2023-12-20T19:55:52;98064.59;;;5.19;100.00
14273;BME280;7220;49.450;11.052;2023-12-20T19:59:52;98054.97;;;5.18;100.00
14273;BME280;7220;49.450;11.052;2023-12-20T20:03:52;98045.31;;;5.18;100.00
14273;BME280;7220;49.450;11.052;2023-12-20T20:07:53;98053.22;;;5.18;100.00
14273;BME280;7220;49.450;11.052;2023-12-20T20:11:54;98040.13;;;5.15;100.00
14273;BME280;7220;49.450;11.052;2023-12-20T20:15:54;98041.13;;;5.13;100.00
14273;BME280;7220;49.450;11.052;2023-12-20T20:19:55;98032.47;;;5.09;100.00
14273;BME280;7220;49.450;11.052;2023-12-20T20:23:55;98021.63;;;5.17;100.00
14273;BME280;7220;49.450;11.052;2023-12-20T20:27:56;98023.66;;;5.10;100.00
14273;BME280;7220;49.450;11.052;2023-12-20T20:31:56;98039.16;;;5.18;100.00
14273;BME280;7220;49.450;11.052;2023-12-20T20:35:56;98033.59;;;5.27;100.00
14273;BME280;7220;49.450;11.052;2023-12-20T20:39:57;98023.03;;;5.27;100.00
14273;BME280;7220;49.450;11.052;2023-12-20T20:44:00;98013.38;;;5.28;100.00
14273;BME280;7220;49.450;11.052;2023-12-20T20:48:00;98002.94;;;5.25;100.00
14273;BME280;7220;49.450;11.052;2023-12-20T20:52:00;98001.94;;;5.29;100.00
14273;BME280;7220;49.450;11.052;2023-12-20T20:56:01;98004.91;;;5.19;100.00
14273;BME280;7220;49.450;11.052;2023-12-20T21:00:02;97997.75;;;5.23;100.00
14273;BME280;7220;49.450;11.052;2023-12-20T21:04:02;97994.22;;;5.22;100.00
14273;BME280;7220;49.450;11.052;2023-12-20T21:08:03;97992.63;;;5.18;100.00
14273;BME280;7220;49.450;11.052;2023-12-20T21:12:04;98001.16;;;5.25;100.00
14273;BME280;7220;49.450;11.052;2023-12-20T21:16:05;97995.63;;;5.33;100.00
14273;BME280;7220;49.450;11.052;2023-12-20T21:20:07;97980.84;;;5.29;100.00
14273;BME280;7220;49.450;11.052;2023-12-20T21:24:08;97990.41;;;5.31;100.00
14273;BME280;7220;49.450;11.052;2023-12-20T21:28:08;97976.50;;;5.28;100.00